Time;durP1;ratioP1;P1;durP2;ratioP2;P2;SDS_P1;SDS_P2;PMS_P1;PMS_P2;Temp;Humidity;BMP_temperature;BMP_pressure;BME280_temperature;BME280_humidity;BME280_pressure;Samples;Min_cycle;Max_cycle;Signal;HPM_P1;HPM_P2
2022/06/30 00:00:13;;;;;;;11.60;3.63;;;;;;;24.00;65.35;99860.28;4957926;28;20173;-72
2022/06/30 00:02:39;;;;;;;5.53;3.43;;;;;;;24.00;65.24;99860.28;4941107;28;20657;-72
2022/06/30 00:05:05;;;;;;;5.10;3.20;;;;;;;23.98;65.03;99862.78;4971840;28;20214;-71
2022/06/30 00:07:30;;;;;;;10.37;4.50;;;;;;;23.97;65.11;99861.97;4970661;28;20221;-71
2022/06/30 00:09:56;;;;;;;6.33;2.97;;;;;;;23.96;65.10;99851.69;4954422;28;20433;-71
2022/06/30 00:12:21;;;;;;;6.07;3.53;;;;;;;23.97;64.95;99866.91;4970984;28;20186;-71
2022/06/30 00:14:47;;;;;;;5.33;3.23;;;;;;;23.96;65.11;99866.09;4959590;28;20179;-72
2022/06/30 00:17:12;;;;;;;6.37;3.87;;;;;;;23.96;65.21;99865.28;4958249;28;20190;-71
2022/06/30 00:19:38;;;;;;;6.67;3.47;;;;;;;23.95;65.41;99864.47;4955171;28;20178;-72
2022/06/30 00:22:06;;;;;;;5.00;3.07;;;;;;;23.96;64.94;99865.28;4972224;28;20178;-71
2022/06/30 00:24:32;;;;;;;4.93;2.97;;;;;;;23.95;64.89;99866.53;4940663;28;20242;-71
2022/06/30 00:26:57;;;;;;;7.83;3.97;;;;;;;23.95;64.99;99863.63;4955979;28;20419;-71
2022/06/30 00:29:23;;;;;;;4.57;3.33;;;;;;;23.94;65.09;99857.03;4951771;29;20722;-71
2022/06/30 00:31:48;;;;;;;3.93;2.70;;;;;;;23.95;65.17;99855.81;4967205;28;20182;-73
2022/06/30 00:34:14;;;;;;;6.23;3.23;;;;;;;23.95;65.25;99861.59;4972844;28;20181;-72
2022/06/30 00:36:39;;;;;;;4.10;3.10;;;;;;;23.94;64.95;99856.25;4974186;28;20567;-71
2022/06/30 00:39:05;;;;;;;4.97;2.80;;;;;;;23.93;65.00;99849.66;4954343;28;20182;-72
2022/06/30 00:41:30;;;;;;;3.47;2.90;;;;;;;23.94;65.36;99851.28;4954711;28;20182;-71
2022/06/30 00:43:56;;;;;;;3.97;3.20;;;;;;;23.93;64.83;99849.66;4972112;28;20183;-71
2022/06/30 00:46:21;;;;;;;4.73;3.57;;;;;;;23.92;65.00;99848.00;4971855;28;20175;-71
2022/06/30 00:48:46;;;;;;;4.07;3.37;;;;;;;23.92;64.79;99842.25;4972985;28;20182;-72
2022/06/30 00:51:12;;;;;;;6.17;3.80;;;;;;;23.91;64.87;99849.28;4955492;28;20625;-73
2022/06/30 00:53:39;;;;;;;9.20;3.63;;;;;;;23.92;64.70;99842.25;4973767;28;20182;-71
2022/06/30 00:56:05;;;;;;;4.27;3.37;;;;;;;23.92;64.96;99852.94;4972833;28;20183;-72
2022/06/30 00:58:35;;;;;;;5.23;3.43;;;;;;;23.92;64.52;99841.41;4955577;28;20469;-71
2022/06/30 01:01:03;;;;;;;7.90;3.57;;;;;;;23.91;64.68;99840.63;4956651;28;20445;-73
2022/06/30 01:03:29;;;;;;;4.70;3.00;;;;;;;23.90;64.54;99841.88;4970676;28;20710;-71
2022/06/30 01:05:54;;;;;;;6.00;3.37;;;;;;;23.90;64.58;99843.91;4936878;28;20977;-71
2022/06/30 01:08:20;;;;;;;6.40;3.63;;;;;;;23.88;64.56;99847.19;4969218;28;20552;-72
2022/06/30 01:13:29;;;;;;;5.90;3.77;;;;;;;23.88;63.81;99841.44;4970633;28;20178;-72
2022/06/30 01:15:54;;;;;;;4.23;3.00;;;;;;;23.88;64.49;99838.53;4970476;28;20850;-71
2022/06/30 01:18:20;;;;;;;4.00;3.17;;;;;;;23.88;64.62;99840.63;4955859;28;20203;-71
2022/06/30 01:20:45;;;;;;;6.53;3.43;;;;;;;23.87;64.49;99839.81;4970467;28;20530;-73
2022/06/30 01:23:11;;;;;;;5.67;3.23;;;;;;;23.87;64.46;99842.69;4955209;28;20179;-72
2022/06/30 01:25:36;;;;;;;3.10;2.67;;;;;;;23.86;64.27;99855.47;4970669;28;20210;-72
2022/06/30 01:28:02;;;;;;;4.10;3.17;;;;;;;23.87;64.37;99851.34;4973791;28;20187;-72
2022/06/30 01:30:27;;;;;;;4.80;3.40;;;;;;;23.87;64.55;99853.38;4955679;28;20858;-72
2022/06/30 01:32:53;;;;;;;6.10;3.07;;;;;;;23.86;64.43;99852.59;4938975;28;20667;-70
2022/06/30 01:35:18;;;;;;;7.60;3.37;;;;;;;23.86;64.31;99855.47;4955768;28;20178;-72
2022/06/30 01:37:55;;;;;;;5.87;3.50;;;;;;;23.85;64.28;99850.13;4956688;28;20203;-72
2022/06/30 01:40:21;;;;;;;4.63;3.40;;;;;;;23.85;64.19;99841.47;4970883;28;20182;-71
2022/06/30 01:42:47;;;;;;;5.00;3.17;;;;;;;23.85;64.04;99844.34;4971423;28;20445;-72
2022/06/30 01:45:12;;;;;;;6.47;3.47;;;;;;;23.84;63.94;99845.59;4947800;29;20481;-71
2022/06/30 01:47:38;;;;;;;5.10;3.43;;;;;;;23.84;64.22;99834.06;4951866;29;20209;-71
2022/06/30 01:50:05;;;;;;;9.43;3.10;;;;;;;23.83;64.50;99839.00;4954628;28;20624;-72
2022/06/30 01:52:30;;;;;;;5.83;3.40;;;;;;;23.82;63.97;99831.63;4955484;28;20183;-72
2022/06/30 01:54:55;;;;;;;5.20;3.70;;;;;;;23.82;64.13;99828.72;4959900;28;20449;-71
2022/06/30 01:57:21;;;;;;;8.40;3.40;;;;;;;23.82;63.79;99831.63;4989913;28;20210;-71
2022/06/30 01:59:46;;;;;;;6.80;3.67;;;;;;;23.82;64.03;99830.78;4952289;28;20178;-71
2022/06/30 02:02:12;;;;;;;3.10;2.80;;;;;;;23.81;64.34;99829.16;4970800;28;20190;-72
2022/06/30 02:04:46;;;;;;;5.40;3.33;;;;;;;23.82;64.15;99830.78;4952519;28;20288;-71
2022/06/30 02:07:12;;;;;;;9.67;3.70;;;;;;;23.82;64.12;99825.03;4953580;28;20352;-72
2022/06/30 02:09:37;;;;;;;7.47;3.90;;;;;;;23.81;63.92;99824.22;4964664;28;20436;-72
2022/06/30 02:14:47;;;;;;;7.03;4.10;;;;;;;23.79;63.80;99823.81;4988535;28;20216;-71
2022/06/30 02:17:12;;;;;;;6.87;3.67;;;;;;;23.79;64.05;99823.81;4973423;28;20512;-71
2022/06/30 02:19:37;;;;;;;7.83;3.83;;;;;;;23.78;63.87;99822.19;4986061;28;20723;-72
2022/06/30 02:22:03;;;;;;;5.93;3.57;;;;;;;23.78;63.73;99822.19;4993229;28;20696;-71
2022/06/30 02:24:29;;;;;;;4.90;3.37;;;;;;;23.78;63.57;99836.59;4992303;28;20178;-72
2022/06/30 02:26:54;;;;;;;5.53;3.50;;;;;;;23.78;64.00;99839.47;4966858;28;20190;-72
2022/06/30 02:29:20;;;;;;;5.80;3.50;;;;;;;23.77;63.72;99837.84;4951002;28;20175;-71
2022/06/30 02:31:45;;;;;;;7.30;3.50;;;;;;;23.76;63.99;99839.09;4965012;28;20190;-70
2022/06/30 02:34:10;;;;;;;7.90;3.40;;;;;;;23.76;64.20;99824.69;4955442;28;20190;-71
2022/06/30 02:36:36;;;;;;;5.50;3.30;;;;;;;23.77;63.80;99828.38;4970299;28;20260;-71
2022/06/30 02:39:01;;;;;;;5.87;3.63;;;;;;;23.77;63.52;99831.25;4954560;28;20186;-71
2022/06/30 02:41:27;;;;;;;5.30;3.00;;;;;;;23.76;63.60;99816.03;4970024;28;20236;-73
2022/06/30 02:43:52;;;;;;;5.13;3.40;;;;;;;23.75;63.76;99814.41;4969618;28;20534;-71
2022/06/30 02:46:18;;;;;;;5.03;3.43;;;;;;;23.75;63.43;99819.34;4954100;28;20618;-70
2022/06/30 02:48:44;;;;;;;4.47;3.40;;;;;;;23.75;63.74;99820.16;4954905;28;20233;-73
2022/06/30 02:51:09;;;;;;;4.70;3.50;;;;;;;23.75;63.45;99825.09;4972030;28;20186;-72
2022/06/30 02:53:35;;;;;;;4.03;3.40;;;;;;;23.74;63.73;99830.03;4973254;28;20175;-71
2022/06/30 02:56:00;;;;;;;9.33;4.30;;;;;;;23.74;63.49;99826.34;4955587;28;20178;-71
2022/06/30 02:58:25;;;;;;;4.37;2.90;;;;;;;23.72;63.64;99829.66;4971319;28;20257;-71
2022/06/30 03:00:51;;;;;;;4.83;3.30;;;;;;;23.72;63.43;99828.84;4970676;28;20190;-71
2022/06/30 03:03:16;;;;;;;11.50;3.27;;;;;;;23.72;63.65;99831.72;4970971;28;20669;-71
2022/06/30 03:05:42;;;;;;;3.60;2.90;;;;;;;23.71;63.43;99824.31;4975489;28;20233;-71
2022/06/30 03:08:07;;;;;;;5.03;2.93;;;;;;;23.71;63.39;99833.78;4971856;28;20174;-71
2022/06/30 03:10:33;;;;;;;4.20;3.50;;;;;;;23.71;63.26;99830.91;4952921;28;20182;-71
2022/06/30 03:12:58;;;;;;;3.77;3.17;;;;;;;23.71;63.42;99833.78;4969490;28;20229;-71
2022/06/30 03:15:24;;;;;;;7.83;3.40;;;;;;;23.70;63.51;99840.81;4942194;28;20273;-71
2022/06/30 03:17:49;;;;;;;8.90;3.03;;;;;;;23.71;63.31;99841.63;4953145;28;20261;-72
2022/06/30 03:20:14;;;;;;;5.00;3.17;;;;;;;23.70;63.26;99843.69;4969465;28;20174;-71
2022/06/30 03:22:40;;;;;;;6.07;3.60;;;;;;;23.69;63.28;99839.16;4969713;28;20245;-71
2022/06/30 03:25:05;;;;;;;4.77;3.30;;;;;;;23.70;63.34;99846.59;4957895;28;20186;-71
2022/06/30 03:27:31;;;;;;;4.70;3.13;;;;;;;23.69;63.71;99842.03;4983471;28;20174;-72
2022/06/30 03:29:57;;;;;;;5.97;3.47;;;;;;;23.69;63.07;99839.16;4975560;28;20186;-73
2022/06/30 03:32:23;;;;;;;5.30;3.43;;;;;;;23.68;63.30;99831.75;4957699;28;20178;-72
2022/06/30 03:34:48;;;;;;;3.93;3.00;;;;;;;23.68;62.79;99826.00;4974234;28;20425;-72
2022/06/30 03:37:14;;;;;;;4.23;3.17;;;;;;;23.68;63.13;99816.53;4975208;28;20199;-71
2022/06/30 03:39:39;;;;;;;5.50;3.70;;;;;;;23.68;63.21;99831.75;4960340;28;20167;-71
2022/06/30 03:42:05;;;;;;;6.73;3.37;;;;;;;23.66;63.15;99825.63;4956876;28;20561;-71
2022/06/30 03:44:30;;;;;;;4.80;3.60;;;;;;;23.67;62.88;99820.66;4958503;28;20675;-71
2022/06/30 03:46:56;;;;;;;5.83;3.27;;;;;;;23.66;63.25;99822.72;4959211;28;20182;-71
2022/06/30 03:49:22;;;;;;;9.70;3.77;;;;;;;23.66;63.15;99828.50;4973817;28;20507;-73
2022/06/30 03:51:48;;;;;;;6.20;3.20;;;;;;;23.65;63.07;99823.97;4961328;28;20418;-71
2022/06/30 03:54:13;;;;;;;5.70;3.40;;;;;;;23.65;62.89;99828.91;4972330;28;20726;-72
2022/06/30 03:56:39;;;;;;;6.97;3.97;;;;;;;23.64;63.05;99830.16;4961068;28;20194;-73
2022/06/30 03:59:04;;;;;;;5.70;3.47;;;;;;;23.65;63.20;99831.81;4956170;28;20179;-71
2022/06/30 04:01:29;;;;;;;3.73;2.90;;;;;;;23.64;62.60;99839.63;4959933;28;20483;-72
2022/06/30 04:03:55;;;;;;;6.07;3.77;;;;;;;23.64;62.88;99836.72;4976394;28;20198;-71
2022/06/30 04:06:20;;;;;;;7.20;3.57;;;;;;;23.64;63.09;99842.50;4963520;28;20646;-71
2022/06/30 04:08:46;;;;;;;5.53;3.67;;;;;;;23.63;63.21;99834.31;4953749;29;20175;-71
2022/06/30 04:11:11;;;;;;;4.57;3.17;;;;;;;23.63;62.78;99834.31;4938108;28;20178;-72
2022/06/30 04:13:37;;;;;;;6.83;3.73;;;;;;;23.62;62.70;99833.47;4958113;28;20179;-71
2022/06/30 04:16:02;;;;;;;9.07;3.43;;;;;;;23.63;62.48;99837.19;4954588;29;20290;-71
2022/06/30 04:18:28;;;;;;;4.50;3.30;;;;;;;23.63;62.39;99840.88;4936898;28;20210;-72
2022/06/30 04:20:53;;;;;;;3.30;2.80;;;;;;;23.62;62.49;99839.25;4963651;28;20189;-71
2022/06/30 04:23:20;;;;;;;5.20;4.17;;;;;;;23.62;62.75;99833.47;4972375;28;20189;-71
2022/06/30 04:25:46;;;;;;;7.50;3.17;;;;;;;23.61;62.72;99831.00;4974148;28;20317;-71
2022/06/30 04:28:11;;;;;;;8.13;3.07;;;;;;;23.61;62.48;99831.00;4965978;28;20513;-71
2022/06/30 04:33:21;;;;;;;8.27;3.80;;;;;;;23.61;62.26;99831.00;4953794;29;20539;-72
2022/06/30 04:35:46;;;;;;;4.10;2.60;;;;;;;23.60;62.33;99838.84;4958016;28;20434;-71
2022/06/30 04:38:12;;;;;;;5.40;3.60;;;;;;;23.60;62.58;99832.25;4975997;28;20210;-71
2022/06/30 04:43:21;;;;;;;5.27;3.00;;;;;;;23.64;62.20;99830.16;4974637;28;20224;-72
2022/06/30 04:45:46;;;;;;;5.73;2.93;;;;;;;23.68;62.53;99843.28;4956392;28;20429;-71
2022/06/30 04:48:12;;;;;;;5.93;3.47;;;;;;;23.73;61.98;99830.50;4973503;28;20179;-71
2022/06/30 04:50:38;;;;;;;6.83;3.30;;;;;;;23.73;61.97;99822.66;4976844;28;20185;-72
2022/06/30 04:53:04;;;;;;;4.40;2.73;;;;;;;23.74;62.32;99830.03;4973052;28;20187;-72
2022/06/30 04:55:29;;;;;;;5.00;3.57;;;;;;;23.75;61.73;99833.75;4958159;28;20437;-71
2022/06/30 04:57:55;;;;;;;9.33;4.17;;;;;;;23.77;62.02;99828.38;4955509;28;20213;-71
2022/06/30 05:00:20;;;;;;;4.90;3.13;;;;;;;23.78;61.95;99824.25;4976497;28;20174;-72
2022/06/30 05:02:46;;;;;;;5.70;3.60;;;;;;;23.79;61.93;99823.81;4974996;28;20178;-71
2022/06/30 05:05:11;;;;;;;9.40;3.60;;;;;;;23.78;61.69;99816.41;4955295;28;20234;-73
2022/06/30 05:07:36;;;;;;;7.30;3.40;;;;;;;23.77;62.00;99811.91;4972855;28;20222;-72
2022/06/30 05:10:03;;;;;;;8.87;3.97;;;;;;;23.77;61.91;99808.19;4973219;28;20183;-71
2022/06/30 05:12:28;;;;;;;7.33;3.30;;;;;;;23.76;61.55;99806.56;4957669;28;20179;-71
2022/06/30 05:14:53;;;;;;;5.23;3.77;;;;;;;23.77;62.17;99806.13;4955727;28;20438;-74
2022/06/30 05:17:19;;;;;;;5.10;3.37;;;;;;;23.77;62.04;99794.59;4940580;28;20273;-72
2022/06/30 05:19:44;;;;;;;11.53;3.80;;;;;;;23.78;62.27;99792.56;4972419;28;20642;-72
2022/06/30 05:22:11;;;;;;;6.73;3.67;;;;;;;23.79;62.26;99794.97;4974611;28;20174;-72
2022/06/30 05:27:20;;;;;;;4.53;3.50;;;;;;;23.82;62.33;99791.25;4973240;28;20496;-72
2022/06/30 05:29:46;;;;;;;7.03;4.10;;;;;;;23.83;62.40;99781.34;4954157;28;20441;-71
2022/06/30 05:32:11;;;;;;;7.83;3.90;;;;;;;23.85;62.35;99781.75;4953947;28;20238;-71
2022/06/30 05:34:37;;;;;;;5.30;3.37;;;;;;;23.87;62.53;99784.19;4983680;28;20558;-71
2022/06/30 05:37:03;;;;;;;8.00;4.30;;;;;;;23.86;62.84;99774.72;4983915;28;20207;-70
2022/06/30 05:39:29;;;;;;;7.07;4.00;;;;;;;23.87;62.60;99781.31;4980244;28;20179;-70
2022/06/30 05:41:54;;;;;;;5.83;3.63;;;;;;;23.86;62.62;99786.28;4967091;28;20434;-71
2022/06/30 05:44:20;;;;;;;4.73;3.47;;;;;;;23.85;62.88;99796.16;4956168;28;20179;-71
2022/06/30 05:46:45;;;;;;;5.23;3.30;;;;;;;23.84;62.76;99794.50;4953233;28;20174;-72
2022/06/30 05:49:11;;;;;;;6.97;4.53;;;;;;;23.85;62.85;99790.41;4953831;28;20190;-71
2022/06/30 05:51:36;;;;;;;9.20;4.83;;;;;;;23.85;63.24;99795.34;4951510;28;20194;-72
2022/06/30 05:54:02;;;;;;;7.73;5.10;;;;;;;23.85;62.92;99793.28;4935054;28;20194;-71
2022/06/30 05:56:27;;;;;;;8.40;4.90;;;;;;;23.88;63.77;99788.72;4956647;28;20194;-72
2022/06/30 05:58:53;;;;;;;7.50;4.13;;;;;;;23.87;63.02;99790.78;4955918;28;20194;-71
2022/06/30 06:01:18;;;;;;;9.10;4.90;;;;;;;23.87;63.21;99782.13;4955312;28;20357;-71
2022/06/30 06:03:44;;;;;;;6.73;4.70;;;;;;;23.88;63.51;99783.75;4955621;28;20193;-72
2022/06/30 06:06:10;;;;;;;7.57;4.57;;;;;;;23.88;63.50;99782.97;4942214;28;20325;-71
2022/06/30 06:08:35;;;;;;;9.50;4.33;;;;;;;23.90;63.83;99780.47;4954099;28;20189;-71
2022/06/30 06:11:01;;;;;;;7.00;4.83;;;;;;;23.92;63.11;99790.34;4939862;28;20178;-71
2022/06/30 06:13:27;;;;;;;6.67;4.17;;;;;;;23.94;63.26;99793.59;4971367;28;20550;-72
2022/06/30 06:15:52;;;;;;;7.10;4.80;;;;;;;23.96;63.09;99785.34;4971146;28;20482;-72
2022/06/30 06:18:17;;;;;;;7.40;4.40;;;;;;;23.97;63.25;99784.09;4956596;28;20217;-71
2022/06/30 06:20:43;;;;;;;8.20;5.20;;;;;;;23.98;63.40;99782.06;4972946;28;20174;-71
2022/06/30 06:23:08;;;;;;;6.40;4.80;;;;;;;23.97;63.66;99787.00;4970890;28;20182;-71
2022/06/30 06:25:34;;;;;;;7.70;5.00;;;;;;;23.96;63.43;99784.53;4970023;28;20174;-71
2022/06/30 06:30:43;;;;;;;6.70;4.63;;;;;;;23.91;63.17;99776.34;4957029;28;20197;-71
2022/06/30 06:33:09;;;;;;;6.30;5.00;;;;;;;23.85;64.29;99783.81;4955205;28;20426;-71
2022/06/30 06:35:34;;;;;;;7.77;4.30;;;;;;;23.86;63.74;99785.44;4971047;28;20253;-71
2022/06/30 06:38:01;;;;;;;9.37;5.17;;;;;;;23.85;63.83;99787.53;4956125;28;20674;-71
2022/06/30 06:40:26;;;;;;;8.40;4.50;;;;;;;23.85;63.93;99786.69;4972882;28;20194;-71
2022/06/30 06:42:52;;;;;;;12.50;6.03;;;;;;;23.72;64.54;99792.19;4970683;28;20429;-71
2022/06/30 06:45:17;;;;;;;7.37;5.50;;;;;;;23.41;65.82;99786.75;4971539;28;20178;-73
2022/06/30 06:47:43;;;;;;;8.30;5.70;;;;;;;23.65;64.55;99782.81;4972418;28;20189;-71
2022/06/30 06:50:09;;;;;;;6.20;4.80;;;;;;;23.72;64.94;99783.53;4968969;28;20200;-71
2022/06/30 06:52:34;;;;;;;7.73;5.03;;;;;;;23.72;65.09;99789.31;4955298;28;20579;-71
2022/06/30 06:55:00;;;;;;;8.97;5.30;;;;;;;23.67;65.34;99788.94;4952111;28;20512;-71
2022/06/30 06:57:32;;;;;;;6.03;4.70;;;;;;;23.70;64.92;99786.03;4970473;28;20206;-71
2022/06/30 06:59:57;;;;;;;7.10;5.07;;;;;;;23.75;65.87;99785.59;4951706;28;20306;-72
2022/06/30 07:02:22;;;;;;;10.53;5.10;;;;;;;23.74;65.99;99789.69;4971095;28;20437;-72
2022/06/30 07:04:49;;;;;;;8.43;5.60;;;;;;;23.56;67.49;99783.31;4969478;28;20198;-73
2022/06/30 07:07:14;;;;;;;7.80;5.90;;;;;;;23.67;66.04;99791.81;4956479;28;20289;-73
2022/06/30 07:09:40;;;;;;;6.80;5.00;;;;;;;23.56;67.84;99797.72;4973643;28;20430;-71
2022/06/30 07:12:06;;;;;;;5.90;5.17;;;;;;;23.61;67.78;99796.44;4973740;28;20186;-71
2022/06/30 07:14:32;;;;;;;8.17;5.20;;;;;;;23.66;66.84;99793.91;4974530;28;20608;-72
2022/06/30 07:16:57;;;;;;;6.90;5.60;;;;;;;23.74;66.27;99794.66;4943147;28;20210;-71
2022/06/30 07:19:23;;;;;;;9.67;5.57;;;;;;;23.74;66.71;99798.34;4958795;28;20209;-72
2022/06/30 07:21:48;;;;;;;7.80;5.37;;;;;;;23.70;68.11;99788.94;4958805;28;20213;-71
2022/06/30 07:24:13;;;;;;;9.33;5.17;;;;;;;23.75;68.89;99790.50;4978775;28;20233;-71
2022/06/30 07:26:39;;;;;;;11.90;6.03;;;;;;;23.67;68.98;99795.53;4978520;28;20178;-71
2022/06/30 07:29:04;;;;;;;10.47;5.60;;;;;;;23.77;67.46;99790.88;4976220;28;20189;-71
2022/06/30 07:31:30;;;;;;;8.70;5.60;;;;;;;23.79;68.54;99794.97;4953873;29;20183;-71
2022/06/30 07:33:55;;;;;;;9.53;6.37;;;;;;;23.71;69.62;99792.63;4954532;28;20258;-71
2022/06/30 07:36:21;;;;;;;8.80;6.00;;;;;;;23.73;67.92;99793.81;4968971;28;20178;-71
2022/06/30 07:38:47;;;;;;;10.87;5.70;;;;;;;23.76;70.47;99792.16;4984195;28;20187;-72
2022/06/30 07:41:12;;;;;;;8.87;5.70;;;;;;;23.77;68.22;99797.50;4981729;28;20190;-73
2022/06/30 07:43:38;;;;;;;9.23;5.97;;;;;;;23.80;69.41;99792.94;4968906;28;20934;-73
2022/06/30 07:46:04;;;;;;;9.97;6.40;;;;;;;23.79;68.92;99792.09;4967176;28;20254;-72
2022/06/30 07:48:29;;;;;;;8.43;5.90;;;;;;;23.77;68.41;99783.06;4969958;28;20546;-72
2022/06/30 07:50:55;;;;;;;6.67;5.17;;;;;;;23.85;67.18;99786.69;4973141;28;20434;-70
2022/06/30 07:53:20;;;;;;;7.90;5.70;;;;;;;23.97;68.73;99784.09;4984642;28;20202;-71
2022/06/30 07:55:46;;;;;;;6.93;5.33;;;;;;;24.01;67.15;99787.78;4973059;28;20174;-69
2022/06/30 07:58:11;;;;;;;17.90;8.90;;;;;;;23.99;71.00;99783.69;4957760;28;20202;-70
2022/06/30 08:00:37;;;;;;;15.70;7.97;;;;;;;23.96;70.37;99779.59;4971757;28;20189;-69
2022/06/30 08:03:02;;;;;;;12.17;7.57;;;;;;;23.95;69.58;99771.38;4972230;28;20221;-71
2022/06/30 08:05:28;;;;;;;13.80;6.60;;;;;;;24.16;69.61;99773.97;4987627;28;20642;-70
2022/06/30 08:07:53;;;;;;;13.33;9.23;;;;;;;24.53;68.71;99768.13;4970804;28;20175;-69
2022/06/30 08:10:18;;;;;;;14.83;9.53;;;;;;;24.74;68.83;99762.03;4956569;28;20171;-70
2022/06/30 08:12:44;;;;;;;16.07;10.80;;;;;;;24.74;68.98;99762.03;4950120;28;20175;-73
2022/06/30 08:15:10;;;;;;;13.47;8.30;;;;;;;24.76;67.22;99753.75;4954346;28;20183;-72
2022/06/30 08:17:35;;;;;;;13.43;10.20;;;;;;;24.78;68.99;99751.25;4943895;29;20203;-70
2022/06/30 08:20:01;;;;;;;16.13;8.77;;;;;;;24.81;68.46;99767.69;4956775;28;20182;-68
2022/06/30 08:22:26;;;;;;;13.57;10.70;;;;;;;24.75;68.70;99758.72;4970582;28;20705;-71
2022/06/30 08:24:52;;;;;;;11.17;7.60;;;;;;;24.85;68.07;99751.97;4970207;28;20167;-71
2022/06/30 08:27:17;;;;;;;16.37;9.80;;;;;;;24.87;66.64;99763.88;4978034;28;20544;-69
2022/06/30 08:29:43;;;;;;;11.33;7.30;;;;;;;24.86;67.36;99753.59;4969931;28;20205;-71
2022/06/30 08:32:09;;;;;;;6.40;5.60;;;;;;;24.94;67.13;99755.09;4984596;28;20188;-72
2022/06/30 08:34:34;;;;;;;11.17;6.70;;;;;;;24.84;67.29;99756.09;4988860;28;20162;-71
2022/06/30 08:37:00;;;;;;;12.53;7.03;;;;;;;24.81;66.62;99754.09;4980016;28;20199;-72
2022/06/30 08:42:11;;;;;;;9.77;5.90;;;;;;;24.85;65.28;99751.97;4951112;29;20205;-70
2022/06/30 08:44:36;;;;;;;7.20;5.57;;;;;;;24.90;65.32;99751.47;4967406;28;20498;-70
2022/06/30 08:47:03;;;;;;;11.03;6.20;;;;;;;25.04;64.95;99750.41;4964852;28;20422;-71
2022/06/30 08:49:29;;;;;;;9.60;6.23;;;;;;;24.90;65.79;99748.59;4953594;28;20187;-71
2022/06/30 08:51:55;;;;;;;10.93;5.60;;;;;;;24.94;65.28;99751.41;4954278;28;20492;-71
2022/06/30 08:54:22;;;;;;;8.57;5.70;;;;;;;24.93;65.24;99746.88;4971134;28;20174;-69
2022/06/30 08:56:47;;;;;;;8.70;6.60;;;;;;;24.90;64.93;99741.97;4955871;28;20421;-71
2022/06/30 08:59:13;;;;;;;8.53;5.80;;;;;;;24.96;64.97;99743.94;4954706;28;20413;-71
2022/06/30 09:01:39;;;;;;;10.83;5.23;;;;;;;24.93;64.51;99741.13;4958352;28;20198;-71
2022/06/30 09:04:06;;;;;;;7.67;5.40;;;;;;;24.86;64.71;99738.31;4934876;29;20199;-70
2022/06/30 09:06:31;;;;;;;9.00;6.30;;;;;;;24.94;66.09;99734.88;4963913;28;20469;-71
2022/06/30 09:08:57;;;;;;;8.67;6.30;;;;;;;24.94;65.95;99731.97;4971269;28;20782;-69
2022/06/30 09:11:46;;;;;;;6.90;6.10;;;;;;;25.04;65.37;99736.75;4970629;28;20182;-71
2022/06/30 09:14:12;;;;;;;11.63;5.67;;;;;;;24.96;65.04;99725.78;4970765;28;20193;-70
2022/06/30 09:16:51;;;;;;;10.80;5.70;;;;;;;24.91;65.40;99726.28;4970896;28;20430;-71
2022/06/30 09:19:17;;;;;;;9.37;7.00;;;;;;;25.00;64.61;99726.53;4958074;28;20198;-71
2022/06/30 09:21:42;;;;;;;7.10;5.60;;;;;;;25.05;65.78;99721.09;4972688;28;20425;-69
2022/06/30 09:24:21;;;;;;;6.10;5.30;;;;;;;25.02;65.31;99716.19;4971012;28;20190;-71
2022/06/30 09:26:46;;;;;;;10.20;5.17;;;;;;;25.08;65.10;99711.53;4962648;28;20202;-70
2022/06/30 09:29:13;;;;;;;9.77;6.13;;;;;;;24.97;64.70;99707.19;4972654;28;20437;-70
2022/06/30 09:31:42;;;;;;;8.77;5.60;;;;;;;25.09;63.28;99706.56;4952875;28;20186;-70
2022/06/30 09:34:19;;;;;;;6.50;5.10;;;;;;;25.06;64.34;99710.34;4948403;28;20644;-71
2022/06/30 09:36:47;;;;;;;11.13;5.47;;;;;;;25.07;64.01;99707.00;4950195;29;20446;-70
2022/06/30 09:39:13;;;;;;;8.90;6.30;;;;;;;25.04;63.74;99713.66;4950438;29;20419;-71
2022/06/30 09:41:39;;;;;;;10.57;5.90;;;;;;;25.01;63.97;99711.66;4963191;28;20446;-71
2022/06/30 09:44:25;;;;;;;8.60;5.90;;;;;;;24.96;63.66;99712.16;4970551;28;20477;-72
2022/06/30 09:47:05;;;;;;;6.73;4.80;;;;;;;24.94;63.37;99702.31;4967734;28;20440;-70
2022/06/30 09:49:35;;;;;;;8.63;5.60;;;;;;;24.91;63.53;99704.00;4953200;28;20445;-72
2022/06/30 09:52:24;;;;;;;7.87;4.50;;;;;;;25.00;62.95;99707.16;4962739;28;20433;-71
2022/06/30 09:54:54;;;;;;;5.33;4.50;;;;;;;24.93;63.59;99700.69;4974617;28;20429;-74
2022/06/30 09:57:20;;;;;;;10.83;5.27;;;;;;;24.89;63.31;99702.81;4954024;28;20876;-73
2022/06/30 09:59:46;;;;;;;9.27;4.77;;;;;;;24.91;63.24;99697.41;4963310;28;20432;-73
2022/06/30 10:02:11;;;;;;;6.07;4.40;;;;;;;24.91;62.63;99701.13;4974203;28;20528;-72
2022/06/30 10:04:54;;;;;;;5.97;4.60;;;;;;;24.94;62.66;99697.31;4956299;28;20674;-71
2022/06/30 10:07:21;;;;;;;7.30;4.53;;;;;;;24.95;62.66;99701.03;4950964;28;20629;-72
2022/06/30 10:09:47;;;;;;;8.30;4.47;;;;;;;24.99;62.42;99696.03;4953542;28;20518;-69
2022/06/30 10:12:12;;;;;;;7.70;5.30;;;;;;;25.02;61.87;99698.84;4956006;28;20488;-71
2022/06/30 10:14:38;;;;;;;7.07;3.70;;;;;;;24.92;62.81;99696.97;4956636;28;20433;-71
2022/06/30 10:17:05;;;;;;;7.60;5.30;;;;;;;24.98;62.79;99695.19;4965730;28;20214;-70
2022/06/30 10:19:30;;;;;;;6.47;4.57;;;;;;;25.10;61.80;99693.75;4947813;28;20216;-71
2022/06/30 10:21:56;;;;;;;7.93;4.23;;;;;;;25.18;61.27;99690.28;4953456;28;20426;-69
2022/06/30 10:24:22;;;;;;;6.60;4.33;;;;;;;25.40;58.46;99691.56;4971052;28;20182;-69
2022/06/30 10:29:31;;;;;;;6.67;3.73;;;;;;;25.34;58.99;99690.44;4959393;28;20237;-70
2022/06/30 10:32:19;;;;;;;7.20;3.90;;;;;;;25.34;59.45;99687.53;4971575;28;20810;-70
2022/06/30 10:34:51;;;;;;;5.97;3.73;;;;;;;25.67;54.88;99688.53;4953313;28;20658;-70
2022/06/30 10:37:25;;;;;;;8.40;3.37;;;;;;;25.71;53.63;99684.31;4956471;28;20552;-70
2022/06/30 10:40:02;;;;;;;6.47;3.57;;;;;;;25.46;58.36;99691.84;4963107;28;20775;-69
2022/06/30 10:42:49;;;;;;;8.10;3.30;;;;;;;25.76;57.03;99683.81;4953462;28;20429;-71
2022/06/30 10:45:27;;;;;;;5.10;3.10;;;;;;;25.71;56.18;99684.31;4972611;28;20917;-69
2022/06/30 10:48:06;;;;;;;9.73;3.70;;;;;;;25.66;56.60;99681.13;4966020;28;20440;-70
2022/06/30 10:50:36;;;;;;;4.57;3.50;;;;;;;25.49;57.21;99673.63;4969747;28;20973;-70
2022/06/30 10:53:04;;;;;;;6.47;3.30;;;;;;;25.48;54.92;99674.91;4968467;28;20470;-70
2022/06/30 10:55:41;;;;;;;3.70;3.00;;;;;;;25.45;54.24;99670.81;4944487;28;20839;-69
2022/06/30 10:58:07;;;;;;;7.13;3.00;;;;;;;25.46;52.00;99681.13;4953635;28;20465;-70
2022/06/30 11:00:55;;;;;;;6.43;3.20;;;;;;;25.42;52.71;99673.75;4969773;28;20433;-70
2022/06/30 11:03:29;;;;;;;4.33;2.87;;;;;;;25.75;52.01;99664.78;4969268;28;20468;-69
2022/06/30 11:05:55;;;;;;;7.93;3.13;;;;;;;26.06;50.90;99665.41;4960466;28;20479;-71
2022/06/30 11:08:39;;;;;;;6.80;2.40;;;;;;;26.15;46.20;99657.72;4952665;28;20426;-70
2022/06/30 11:11:28;;;;;;;4.03;2.20;;;;;;;25.85;48.79;99652.19;4974397;28;20174;-70
2022/06/30 11:14:02;;;;;;;4.60;2.43;;;;;;;25.83;50.67;99651.81;4965318;28;20438;-72
2022/06/30 11:16:56;;;;;;;3.90;2.43;;;;;;;25.69;50.32;99651.34;4973822;28;20509;-70
2022/06/30 11:19:23;;;;;;;5.13;2.97;;;;;;;25.71;49.91;99645.91;4969925;28;20470;-71
2022/06/30 11:21:48;;;;;;;5.80;2.40;;;;;;;26.23;47.88;99641.00;4958354;28;20437;-71
2022/06/30 11:24:15;;;;;;;4.77;2.27;;;;;;;25.96;48.81;99631.75;4977911;28;21037;-71
2022/06/30 11:29:26;;;;;;;3.73;2.60;;;;;;;25.93;49.94;99621.88;4970330;28;20499;-70
2022/06/30 11:31:57;;;;;;;4.73;3.17;;;;;;;25.95;52.43;99625.13;4938453;28;21278;-71
2022/06/30 11:34:23;;;;;;;5.13;3.00;;;;;;;26.05;50.31;99626.97;4974045;28;21066;-71
2022/06/30 11:36:48;;;;;;;9.90;3.40;;;;;;;26.10;50.74;99622.75;4968920;28;20434;-70
2022/06/30 11:39:15;;;;;;;5.80;2.97;;;;;;;26.02;52.00;99621.25;4935992;28;20253;-71
2022/06/30 11:44:28;;;;;;;5.10;3.20;;;;;;;25.85;51.05;99613.78;4963820;28;20473;-72
2022/06/30 11:47:04;;;;;;;5.83;2.80;;;;;;;26.08;50.03;99607.88;4965237;28;20438;-71
2022/06/30 11:49:43;;;;;;;6.43;3.10;;;;;;;26.33;49.25;99605.22;4953105;28;20430;-71
2022/06/30 11:52:29;;;;;;;6.10;3.13;;;;;;;26.08;50.00;99605.81;4969056;28;20434;-70
2022/06/30 11:55:03;;;;;;;3.90;2.80;;;;;;;26.43;49.08;99602.06;4969691;28;20828;-70
2022/06/30 11:57:32;;;;;;;6.23;3.30;;;;;;;26.06;51.26;99593.91;4974758;28;21271;-70